createdAt,value
2023-10-15T00:01:47.984Z,3.20
2023-10-15T00:04:21.346Z,1.80
2023-10-15T00:06:47.802Z,2.30
2023-10-15T00:09:14.225Z,2.20
2023-10-15T00:11:40.865Z,1.65
2023-10-15T00:14:08.989Z,2.42
2023-10-15T00:16:35.771Z,2.78
2023-10-15T00:19:02.440Z,2.97
2023-10-15T00:21:28.901Z,2.13
2023-10-15T00:23:55.264Z,3.00
2023-10-15T00:26:23.758Z,1.92
2023-10-15T00:28:50.271Z,2.42
2023-10-15T00:31:16.664Z,2.63
2023-10-15T00:33:43.947Z,2.80
2023-10-15T00:36:10.318Z,1.45
2023-10-15T00:38:36.701Z,1.52
2023-10-15T00:41:09.512Z,2.83
2023-10-15T00:43:36.109Z,2.75
2023-10-15T00:46:10.584Z,2.38
2023-10-15T00:48:40.152Z,1.50
2023-10-15T00:51:10.614Z,2.80
2023-10-15T00:53:38.428Z,2.58
2023-10-15T00:56:08.499Z,1.98
2023-10-15T00:58:35.009Z,1.80
2023-10-15T01:01:02.195Z,5.18
2023-10-15T01:03:31.577Z,1.92
2023-10-15T01:06:00.184Z,2.40
2023-10-15T01:08:26.510Z,2.38
2023-10-15T01:11:16.120Z,1.80
2023-10-15T01:13:44.572Z,3.42
2023-10-15T01:16:13.783Z,2.17
2023-10-15T01:18:40.623Z,3.55
2023-10-15T01:21:07.009Z,2.40
2023-10-15T01:23:38.909Z,4.15
2023-10-15T01:26:08.016Z,1.10
2023-10-15T01:28:35.433Z,1.98
2023-10-15T01:31:02.003Z,1.23
2023-10-15T01:33:28.439Z,1.17
2023-10-15T01:35:57.316Z,0.88
2023-10-15T01:38:25.005Z,1.67
2023-10-15T01:40:58.528Z,2.80
2023-10-15T01:43:30.844Z,2.33
2023-10-15T01:46:03.334Z,0.80
2023-10-15T01:48:32.499Z,1.55
2023-10-15T01:51:04.937Z,0.93
2023-10-15T01:53:32.271Z,0.52
2023-10-15T01:56:08.359Z,1.00
2023-10-15T01:58:36.910Z,1.90
2023-10-15T02:01:13.769Z,1.52
2023-10-15T02:03:45.822Z,1.40
2023-10-15T02:06:14.659Z,1.30
2023-10-15T02:08:44.854Z,0.60
2023-10-15T02:11:20.020Z,2.05
2023-10-15T02:13:49.622Z,0.80
2023-10-15T02:16:19.870Z,0.80
2023-10-15T02:18:46.618Z,2.20
2023-10-15T02:21:13.952Z,2.13
2023-10-15T02:23:40.352Z,1.25
2023-10-15T02:26:09.813Z,1.13
2023-10-15T02:28:36.219Z,1.23
2023-10-15T02:31:05.019Z,1.02
2023-10-15T02:33:35.190Z,2.55
2023-10-15T02:36:07.330Z,1.27
2023-10-15T02:38:36.074Z,1.25
2023-10-15T02:41:06.930Z,0.40
2023-10-15T02:43:35.779Z,0.98
2023-10-15T02:46:03.436Z,0.77
2023-10-15T02:48:29.831Z,0.90
2023-10-15T02:50:56.183Z,0.90
2023-10-15T02:53:25.041Z,1.27
2023-10-15T02:55:55.369Z,3.80
2023-10-15T02:58:24.780Z,1.63
2023-10-15T03:00:51.174Z,0.88
2023-10-15T03:03:30.231Z,2.55
2023-10-15T03:05:59.305Z,1.77
2023-10-15T03:08:39.634Z,0.57
2023-10-15T03:11:15.532Z,0.90
2023-10-15T03:13:45.797Z,1.30
2023-10-15T03:16:12.220Z,1.17
2023-10-15T03:18:38.697Z,0.40
2023-10-15T03:21:10.812Z,0.93
2023-10-15T03:23:37.444Z,2.22
2023-10-15T03:26:07.537Z,1.27
2023-10-15T03:28:34.086Z,1.75
2023-10-15T03:31:02.785Z,1.58
2023-10-15T03:33:29.384Z,2.58
2023-10-15T03:35:58.288Z,2.58
2023-10-15T03:38:24.853Z,0.98
2023-10-15T03:40:53.991Z,0.52
2023-10-15T03:43:22.864Z,1.08
2023-10-15T03:45:52.099Z,2.95
2023-10-15T03:48:23.177Z,1.60
2023-10-15T03:50:50.194Z,1.13
2023-10-15T03:53:19.187Z,1.25
2023-10-15T03:55:47.100Z,1.05
2023-10-15T03:58:13.576Z,0.82
2023-10-15T04:00:42.175Z,1.85
2023-10-15T04:03:09.991Z,3.47
2023-10-15T04:05:36.619Z,3.53
2023-10-15T04:08:04.495Z,1.60
2023-10-15T04:10:30.925Z,1.17
2023-10-15T04:13:00.369Z,0.73
2023-10-15T04:15:26.796Z,1.10
2023-10-15T04:17:53.284Z,1.00
2023-10-15T04:20:22.398Z,1.25
2023-10-15T04:22:48.893Z,2.95
2023-10-15T04:25:15.459Z,2.83
2023-10-15T04:27:41.961Z,2.33
2023-10-15T04:30:09.832Z,2.45
2023-10-15T04:32:37.844Z,3.53
2023-10-15T04:35:06.969Z,2.53
2023-10-15T04:37:35.218Z,1.88
2023-10-15T04:40:15.162Z,2.25
2023-10-15T04:42:47.165Z,1.30
2023-10-15T04:45:13.596Z,1.30
2023-10-15T04:47:42.163Z,0.93
2023-10-15T04:50:09.228Z,0.73
2023-10-15T04:52:37.857Z,2.83
2023-10-15T04:55:04.586Z,0.88
2023-10-15T04:57:30.980Z,0.80
2023-10-15T04:59:57.381Z,2.28
2023-10-15T05:02:27.675Z,1.27
2023-10-15T05:04:56.475Z,3.25
2023-10-15T05:07:27.393Z,2.00
2023-10-15T05:09:56.964Z,0.70
2023-10-15T05:12:25.234Z,1.55
2023-10-15T05:14:51.637Z,2.35
2023-10-15T05:17:18.168Z,1.55
2023-10-15T05:19:44.694Z,1.13
2023-10-15T05:22:12.432Z,1.30
2023-10-15T05:24:40.747Z,3.15
2023-10-15T05:27:07.159Z,2.67
2023-10-15T05:29:35.675Z,2.03
2023-10-15T05:32:02.062Z,1.45
2023-10-15T05:34:28.590Z,1.40
2023-10-15T05:36:55.041Z,1.38
2023-10-15T05:39:25.640Z,1.45
2023-10-15T05:41:51.984Z,2.65
2023-10-15T05:44:18.296Z,3.05
2023-10-15T05:46:48.378Z,1.30
2023-10-15T05:49:14.799Z,1.40
2023-10-15T05:51:41.237Z,2.70
2023-10-15T05:54:07.652Z,2.33
2023-10-15T05:56:34.065Z,2.25
2023-10-15T05:59:00.511Z,0.80
2023-10-15T06:01:26.966Z,1.65
2023-10-15T06:03:55.742Z,2.25
2023-10-15T06:06:22.156Z,2.58
2023-10-15T06:08:48.474Z,1.00
2023-10-15T06:11:14.863Z,1.15
2023-10-15T06:13:41.374Z,4.68
2023-10-15T06:16:07.772Z,0.82
2023-10-15T06:18:34.254Z,1.30
2023-10-15T06:21:00.753Z,2.47
2023-10-15T06:23:27.181Z,1.63
2023-10-15T06:25:53.744Z,2.30
2023-10-15T06:28:22.591Z,1.00
2023-10-15T06:30:53.246Z,1.08
2023-10-15T06:35:46.212Z,1.13
2023-10-15T06:38:15.393Z,2.25
2023-10-15T06:40:41.824Z,0.63
2023-10-15T06:43:08.248Z,1.55
2023-10-15T06:45:34.717Z,2.28
2023-10-15T06:48:04.358Z,0.98
2023-10-15T06:50:38.701Z,2.88
2023-10-15T06:53:05.108Z,3.85
2023-10-15T06:55:33.375Z,1.92
2023-10-15T06:58:00.082Z,1.50
2023-10-15T07:00:27.152Z,1.65
2023-10-15T07:02:57.349Z,1.73
2023-10-15T07:05:25.602Z,1.73
2023-10-15T07:07:52.340Z,2.17
2023-10-15T07:10:21.057Z,2.50
2023-10-15T07:12:48.665Z,1.52
2023-10-15T07:15:18.921Z,4.90
2023-10-15T07:17:46.369Z,3.65
2023-10-15T07:20:23.258Z,2.22
2023-10-15T07:22:51.136Z,2.92
2023-10-15T07:25:19.986Z,2.15
2023-10-15T07:27:47.734Z,1.85
2023-10-15T07:30:17.200Z,2.05
2023-10-15T07:32:46.325Z,0.93
2023-10-15T07:35:14.900Z,2.15
2023-10-15T07:37:47.982Z,2.47
2023-10-15T07:40:22.131Z,2.70
2023-10-15T07:42:53.444Z,2.25
2023-10-15T07:45:24.432Z,2.30
2023-10-15T07:47:50.913Z,2.75
2023-10-15T07:50:21.201Z,1.67
2023-10-15T07:52:49.323Z,1.48
2023-10-15T07:55:16.611Z,6.50
2023-10-15T07:57:43.560Z,0.80
2023-10-15T08:00:12.282Z,2.70
2023-10-15T08:02:39.058Z,2.80
2023-10-15T08:05:08.019Z,2.08
2023-10-15T08:07:38.453Z,1.13
2023-10-15T08:10:05.768Z,1.15
2023-10-15T08:12:32.680Z,2.35
2023-10-15T08:14:59.253Z,1.00
2023-10-15T08:17:25.803Z,2.85
2023-10-15T08:19:53.795Z,1.80
2023-10-15T08:22:20.342Z,1.58
2023-10-15T08:24:47.141Z,0.73
2023-10-15T08:27:14.345Z,1.00
2023-10-15T08:29:44.736Z,1.85
2023-10-15T08:32:13.372Z,1.13
2023-10-15T08:34:39.802Z,2.22
2023-10-15T08:37:07.434Z,2.17
2023-10-15T08:39:35.286Z,0.98
2023-10-15T08:42:06.503Z,2.63
2023-10-15T08:44:34.352Z,0.73
2023-10-15T08:47:00.994Z,1.27
2023-10-15T08:49:33.922Z,1.30
2023-10-15T08:52:04.234Z,2.25
2023-10-15T08:54:35.279Z,1.55
2023-10-15T08:57:05.456Z,1.85
2023-10-15T08:59:32.125Z,3.53
2023-10-15T09:01:58.916Z,0.75
2023-10-15T09:04:27.937Z,1.65
2023-10-15T09:06:58.687Z,1.15
2023-10-15T09:09:25.190Z,2.60
2023-10-15T09:11:55.802Z,1.20
2023-10-15T09:14:44.996Z,1.65
2023-10-15T09:17:18.561Z,1.20
2023-10-15T09:19:48.665Z,1.85
2023-10-15T09:22:17.195Z,0.90
2023-10-15T09:24:44.929Z,1.73
2023-10-15T09:27:14.931Z,1.95
2023-10-15T09:29:42.039Z,1.70
2023-10-15T09:32:12.456Z,1.60
2023-10-15T09:34:41.959Z,1.90
2023-10-15T09:37:08.444Z,2.13
2023-10-15T09:39:36.039Z,1.88
2023-10-15T09:42:07.048Z,2.97
2023-10-15T09:44:35.943Z,2.15
2023-10-15T09:47:02.617Z,2.10
2023-10-15T09:49:31.169Z,1.67
2023-10-15T09:52:02.219Z,3.17
2023-10-15T09:54:36.207Z,1.30
2023-10-15T09:57:05.729Z,2.15
2023-10-15T09:59:32.418Z,5.03
2023-10-15T10:02:03.643Z,2.60
2023-10-15T10:04:45.117Z,1.08
2023-10-15T10:07:25.618Z,1.63
2023-10-15T10:10:12.394Z,2.92
2023-10-15T10:13:17.373Z,1.27
2023-10-15T10:15:51.066Z,4.35
2023-10-15T10:18:19.995Z,2.25
2023-10-15T10:20:46.573Z,3.50
2023-10-15T10:23:17.142Z,1.48
2023-10-15T10:25:50.450Z,1.83
2023-10-15T10:28:22.349Z,2.20
2023-10-15T10:30:56.793Z,3.42
2023-10-15T10:34:08.676Z,1.75
2023-10-15T10:39:13.652Z,1.48
2023-10-15T10:41:46.125Z,3.63
2023-10-15T10:44:27.770Z,1.63
2023-10-15T10:46:55.777Z,5.35
2023-10-15T10:49:35.832Z,2.42
2023-10-15T10:52:10.002Z,3.65
2023-10-15T10:54:36.455Z,2.08
2023-10-15T10:57:03.678Z,2.65
2023-10-15T10:59:32.436Z,2.97
2023-10-15T11:01:59.749Z,1.67
2023-10-15T11:04:26.638Z,3.35
2023-10-15T11:06:53.548Z,9.48
2023-10-15T11:09:21.203Z,3.22
2023-10-15T11:11:49.812Z,2.78
2023-10-15T11:14:17.499Z,2.80
2023-10-15T11:16:49.044Z,2.40
2023-10-15T11:19:26.483Z,1.35
2023-10-15T11:21:55.850Z,2.38
2023-10-15T11:24:24.932Z,2.28
2023-10-15T11:26:52.539Z,2.35
2023-10-15T11:29:20.074Z,1.70
2023-10-15T11:31:50.294Z,1.73
2023-10-15T11:34:22.178Z,2.50
2023-10-15T11:36:53.911Z,1.00
2023-10-15T11:39:24.338Z,1.15
2023-10-15T11:44:24.560Z,1.90
2023-10-15T11:46:52.731Z,1.23
2023-10-15T11:49:19.510Z,0.80
2023-10-15T11:51:46.177Z,0.90
2023-10-15T11:54:15.689Z,1.23
2023-10-15T11:56:50.894Z,2.17
2023-10-15T11:59:20.493Z,2.95
2023-10-15T12:01:47.325Z,1.40
2023-10-15T12:04:13.774Z,2.45
2023-10-15T12:06:40.190Z,1.63
2023-10-15T12:09:09.014Z,1.92
2023-10-15T12:11:38.131Z,2.15
2023-10-15T12:14:07.381Z,1.23
2023-10-15T12:16:45.472Z,1.20
2023-10-15T12:19:17.430Z,1.63
2023-10-15T12:21:44.375Z,2.25
2023-10-15T12:24:12.115Z,1.40
2023-10-15T12:26:38.607Z,2.40
2023-10-15T12:29:16.191Z,7.30
2023-10-15T12:31:54.792Z,4.10
2023-10-15T12:34:28.122Z,3.45
2023-10-15T12:36:56.979Z,3.45
2023-10-15T12:39:26.596Z,1.73
2023-10-15T12:41:53.251Z,1.33
2023-10-15T12:44:30.490Z,2.97
2023-10-15T12:46:59.659Z,2.38
2023-10-15T12:49:28.715Z,1.60
2023-10-15T12:51:55.354Z,3.80
2023-10-15T12:54:23.330Z,1.85
2023-10-15T12:56:50.056Z,2.20
2023-10-15T12:59:16.680Z,3.42
2023-10-15T13:01:43.539Z,1.27
2023-10-15T13:04:10.096Z,2.83
2023-10-15T13:06:37.786Z,2.33
2023-10-15T13:09:09.391Z,2.65
2023-10-15T13:11:39.566Z,2.17
2023-10-15T13:14:05.938Z,1.98
2023-10-15T13:16:32.290Z,3.03
2023-10-15T13:19:05.125Z,2.75
2023-10-15T13:21:40.779Z,1.40
2023-10-15T13:24:07.653Z,3.22
2023-10-15T13:26:34.207Z,2.63
2023-10-15T13:29:05.993Z,3.58
2023-10-15T13:31:34.934Z,1.60
2023-10-15T13:34:01.402Z,1.98
2023-10-15T13:36:27.808Z,1.90
2023-10-15T13:38:56.383Z,2.13
2023-10-15T13:41:25.283Z,1.85
2023-10-15T13:44:00.864Z,2.33
2023-10-15T13:46:27.317Z,2.45
2023-10-15T13:48:56.211Z,1.88
2023-10-15T13:51:25.163Z,3.55
2023-10-15T13:53:51.794Z,1.95
2023-10-15T13:56:21.605Z,4.40
2023-10-15T13:58:48.073Z,2.17
2023-10-15T14:01:14.599Z,1.13
2023-10-15T14:03:41.433Z,1.20
2023-10-15T14:06:12.384Z,3.35
2023-10-15T14:08:38.834Z,4.15
2023-10-15T14:11:05.360Z,5.63
2023-10-15T14:13:31.771Z,11.82
2023-10-15T14:15:58.164Z,4.05
2023-10-15T14:18:31.994Z,2.42
2023-10-15T14:21:00.594Z,2.97
2023-10-15T14:23:30.586Z,4.25
2023-10-15T14:26:04.293Z,1.90
2023-10-15T14:28:30.725Z,0.75
2023-10-15T14:31:01.354Z,0.70
2023-10-15T14:33:33.430Z,1.08
2023-10-15T14:36:00.005Z,1.23
2023-10-15T14:38:27.998Z,1.25
2023-10-15T14:40:54.624Z,2.15
2023-10-15T14:43:21.185Z,2.65
2023-10-15T14:45:47.521Z,1.02
2023-10-15T14:48:14.915Z,2.92
2023-10-15T14:50:41.282Z,1.85
2023-10-15T14:53:09.971Z,2.10
2023-10-15T14:55:36.511Z,1.77
2023-10-15T14:58:03.008Z,1.60
2023-10-15T15:00:30.525Z,1.67
2023-10-15T15:02:56.986Z,2.70
2023-10-15T15:05:23.546Z,1.65
2023-10-15T15:07:50.005Z,1.40
2023-10-15T15:10:16.587Z,3.20
2023-10-15T15:12:43.065Z,3.53
2023-10-15T15:15:09.929Z,2.75
2023-10-15T15:17:41.255Z,1.45
2023-10-15T15:20:08.460Z,2.85
2023-10-15T15:22:35.224Z,2.13
2023-10-15T15:25:02.369Z,2.25
2023-10-15T15:27:28.841Z,0.98
2023-10-15T15:29:55.392Z,1.95
2023-10-15T15:32:21.884Z,2.20
2023-10-15T15:34:50.912Z,1.50
2023-10-15T15:37:17.384Z,1.98
2023-10-15T15:39:46.262Z,1.35
2023-10-15T15:42:12.641Z,2.30
2023-10-15T15:44:39.006Z,1.73
2023-10-15T15:47:05.535Z,2.35
2023-10-15T15:49:31.896Z,2.13
2023-10-15T15:51:58.271Z,0.82
2023-10-15T15:54:24.867Z,3.30
2023-10-15T15:56:53.992Z,1.98
2023-10-15T15:59:33.465Z,1.85
2023-10-15T16:02:00.102Z,3.35
2023-10-15T16:04:29.306Z,1.52
2023-10-15T16:06:59.898Z,2.22
2023-10-15T16:11:52.618Z,3.70
2023-10-15T16:14:19.067Z,3.20
2023-10-15T16:16:51.458Z,3.78
2023-10-15T16:19:24.495Z,2.97
2023-10-15T16:21:53.109Z,2.85
2023-10-15T16:24:19.570Z,1.90
2023-10-15T16:26:49.064Z,1.55
2023-10-15T16:29:17.882Z,2.50
2023-10-15T16:31:44.382Z,3.17
2023-10-15T16:34:16.771Z,8.20
2023-10-15T16:36:47.965Z,5.80
2023-10-15T16:39:16.689Z,7.57
2023-10-15T16:41:45.676Z,3.40
2023-10-15T16:44:12.276Z,3.22
2023-10-15T16:46:47.617Z,2.55
2023-10-15T16:49:14.448Z,1.02
2023-10-15T16:51:40.991Z,2.75
2023-10-15T16:54:07.611Z,1.45
2023-10-15T16:56:36.534Z,1.17
2023-10-15T16:59:03.283Z,2.25
2023-10-15T17:01:29.741Z,2.08
2023-10-15T17:03:57.317Z,0.73
2023-10-15T17:06:25.712Z,1.02
2023-10-15T17:08:57.418Z,0.77
2023-10-15T17:11:23.818Z,1.33
2023-10-15T17:13:50.154Z,1.65
2023-10-15T17:16:19.076Z,0.73
2023-10-15T17:18:48.239Z,2.72
2023-10-15T17:21:14.678Z,1.98
2023-10-15T17:23:44.452Z,2.08
2023-10-15T17:26:15.607Z,2.20
2023-10-15T17:28:43.586Z,0.98
2023-10-15T17:31:12.481Z,1.10
2023-10-15T17:33:38.974Z,2.95
2023-10-15T17:36:07.185Z,2.15
2023-10-15T17:38:33.697Z,1.88
2023-10-15T17:41:02.326Z,1.17
2023-10-15T17:43:28.842Z,2.42
2023-10-15T17:45:56.485Z,2.80
2023-10-15T17:48:23.634Z,15.40
2023-10-15T17:50:56.654Z,19.67
2023-10-15T17:53:25.306Z,8.43
2023-10-15T17:55:56.942Z,3.92
2023-10-15T17:58:25.304Z,3.92
2023-10-15T18:00:53.500Z,2.63
2023-10-15T18:03:21.478Z,1.92
2023-10-15T18:05:52.107Z,3.10
2023-10-15T18:08:18.840Z,1.95
2023-10-15T18:10:45.218Z,4.82
2023-10-15T18:13:11.654Z,4.10
2023-10-15T18:15:40.271Z,2.70
2023-10-15T18:18:13.363Z,1.65
2023-10-15T18:20:41.057Z,4.10
2023-10-15T18:23:10.370Z,4.03
2023-10-15T18:25:36.813Z,1.13
2023-10-15T18:28:04.702Z,1.85
2023-10-15T18:30:31.196Z,2.20
2023-10-15T18:32:57.728Z,3.13
2023-10-15T18:35:24.285Z,3.40
2023-10-15T18:37:53.064Z,1.80
2023-10-15T18:40:20.864Z,4.35
2023-10-15T18:42:47.247Z,1.48
2023-10-15T18:45:13.871Z,3.28
2023-10-15T18:47:40.524Z,2.13
2023-10-15T18:50:12.341Z,2.05
2023-10-15T18:52:38.788Z,4.50
2023-10-15T18:55:05.631Z,3.33
2023-10-15T18:57:32.593Z,3.10
2023-10-15T18:59:59.284Z,1.27
2023-10-15T19:02:33.591Z,1.17
2023-10-15T19:04:59.988Z,2.55
2023-10-15T19:07:26.373Z,1.33
2023-10-15T19:09:52.752Z,3.03
2023-10-15T19:12:22.907Z,3.33
2023-10-15T19:14:52.359Z,1.50
2023-10-15T19:17:20.953Z,2.03
2023-10-15T19:19:49.830Z,6.05
2023-10-15T19:22:17.470Z,3.97
2023-10-15T19:24:47.876Z,3.08
2023-10-15T19:27:14.307Z,3.03
2023-10-15T19:29:42.853Z,2.85
2023-10-15T19:32:11.889Z,2.13
2023-10-15T19:34:41.319Z,4.13
2023-10-15T19:37:14.983Z,3.38
2023-10-15T19:39:46.302Z,3.78
2023-10-15T19:42:14.314Z,4.03
2023-10-15T19:44:40.842Z,3.33
2023-10-15T19:47:09.638Z,2.78
2023-10-15T19:49:36.175Z,3.55
2023-10-15T19:52:02.547Z,3.45
2023-10-15T19:54:30.948Z,3.15
2023-10-15T19:56:58.526Z,5.10
2023-10-15T19:59:29.317Z,3.95
2023-10-15T20:01:58.852Z,6.90
2023-10-15T20:04:25.761Z,4.45
2023-10-15T20:06:55.389Z,4.38
2023-10-15T20:09:26.660Z,2.53
2023-10-15T20:11:53.275Z,3.53
2023-10-15T20:14:30.584Z,3.92
2023-10-15T20:17:03.802Z,6.05
2023-10-15T20:19:31.408Z,5.55
2023-10-15T20:22:00.291Z,5.22
2023-10-15T20:24:26.964Z,7.00
2023-10-15T20:26:53.496Z,5.65
2023-10-15T20:29:19.895Z,4.07
2023-10-15T20:31:46.276Z,5.60
2023-10-15T20:34:20.207Z,3.65
2023-10-15T20:36:46.709Z,4.28
2023-10-15T20:39:13.103Z,4.20
2023-10-15T20:41:39.641Z,5.40
2023-10-15T20:44:08.398Z,3.95
2023-10-15T20:46:34.784Z,4.40
2023-10-15T20:49:01.292Z,4.70
2023-10-15T20:51:27.633Z,3.13
2023-10-15T20:53:54.069Z,3.60
2023-10-15T20:56:20.426Z,4.32
2023-10-15T20:58:46.818Z,3.00
2023-10-15T21:01:13.318Z,3.60
2023-10-15T21:03:39.765Z,5.75
2023-10-15T21:06:06.288Z,6.97
2023-10-15T21:08:32.706Z,4.80
2023-10-15T21:10:59.201Z,5.32
2023-10-15T21:13:25.937Z,8.52
2023-10-15T21:15:52.348Z,6.28
2023-10-15T21:18:18.874Z,7.53
2023-10-15T21:20:48.215Z,5.82
2023-10-15T21:23:14.590Z,4.57
2023-10-15T21:25:44.914Z,5.30
2023-10-15T21:28:11.329Z,6.35
2023-10-15T21:30:41.330Z,5.07
2023-10-15T21:33:10.578Z,4.65
2023-10-15T21:35:36.987Z,6.07
2023-10-15T21:38:05.784Z,5.80
2023-10-15T21:40:34.091Z,6.97
2023-10-15T21:43:00.504Z,7.75
2023-10-15T21:45:26.983Z,5.35
2023-10-15T21:47:55.448Z,5.00
2023-10-15T21:50:23.254Z,6.15
2023-10-15T21:52:51.218Z,6.03
2023-10-15T21:55:17.841Z,6.00
2023-10-15T21:57:46.507Z,8.68
2023-10-15T22:00:13.424Z,5.85
2023-10-15T22:02:40.132Z,6.55
2023-10-15T22:05:11.208Z,4.80
2023-10-15T22:07:37.701Z,3.28
2023-10-15T22:10:04.477Z,6.25
2023-10-15T22:12:30.965Z,2.63
2023-10-15T22:14:57.423Z,4.93
2023-10-15T22:17:26.564Z,4.32
2023-10-15T22:19:52.969Z,4.55
2023-10-15T22:22:24.532Z,3.72
2023-10-15T22:24:50.942Z,3.25
2023-10-15T22:27:20.677Z,4.07
2023-10-15T22:29:47.128Z,2.67
2023-10-15T22:32:13.570Z,3.65
2023-10-15T22:34:40.383Z,2.88
2023-10-15T22:37:08.389Z,4.15
2023-10-15T22:39:36.662Z,3.90
2023-10-15T22:42:04.416Z,2.97
2023-10-15T22:44:32.912Z,4.25
2023-10-15T22:47:03.870Z,3.17
2023-10-15T22:49:30.263Z,7.30
2023-10-15T22:51:56.683Z,3.22
2023-10-15T22:54:23.248Z,4.03
2023-10-15T22:56:51.892Z,4.18
2023-10-15T22:59:23.818Z,4.05
2023-10-15T23:01:53.189Z,4.28
2023-10-15T23:04:19.805Z,7.07
2023-10-15T23:06:46.314Z,6.07
2023-10-15T23:09:14.810Z,3.28
2023-10-15T23:11:43.728Z,3.58
2023-10-15T23:14:10.235Z,3.97
2023-10-15T23:16:36.781Z,5.88
2023-10-15T23:19:03.309Z,4.75
2023-10-15T23:21:32.565Z,4.25
2023-10-15T23:24:01.524Z,3.67
2023-10-15T23:26:27.856Z,6.18
2023-10-15T23:28:57.334Z,4.10
2023-10-15T23:31:23.825Z,3.47
2023-10-15T23:33:50.397Z,6.40
2023-10-15T23:36:17.023Z,6.05
2023-10-15T23:38:43.518Z,5.65
2023-10-15T23:41:09.944Z,5.00
2023-10-15T23:43:40.061Z,7.32
2023-10-15T23:46:06.550Z,4.40
2023-10-15T23:48:35.350Z,5.68
2023-10-15T23:51:01.749Z,4.50
2023-10-15T23:53:28.381Z,3.85
2023-10-15T23:55:54.748Z,6.00
2023-10-15T23:58:21.079Z,6.28
